createdAt,value
2017-06-30T00:00:47.679Z,0
2017-06-30T00:01:47.993Z,0
2017-06-30T00:02:47.721Z,0
2017-06-30T00:03:48.077Z,0
2017-06-30T00:04:48.111Z,0
2017-06-30T00:05:47.836Z,0
2017-06-30T00:06:48.187Z,0
2017-06-30T00:07:48.227Z,0
2017-06-30T00:08:48.263Z,0
2017-06-30T00:09:48.618Z,0
2017-06-30T00:10:48.347Z,0
2017-06-30T00:11:48.378Z,0
2017-06-30T00:12:49.034Z,0
2017-06-30T00:13:49.074Z,0
2017-06-30T00:14:48.491Z,0
2017-06-30T00:15:48.230Z,0
2017-06-30T00:16:48.574Z,0
2017-06-30T00:17:48.613Z,0
2017-06-30T00:18:48.346Z,0
2017-06-30T00:19:48.696Z,0
2017-06-30T00:20:48.424Z,0
2017-06-30T00:21:48.774Z,0
2017-06-30T00:22:48.803Z,0
2017-06-30T00:23:49.159Z,0
2017-06-30T00:24:49.187Z,0
2017-06-30T00:25:48.838Z,0
2017-06-30T00:26:48.963Z,0
2017-06-30T00:27:48.688Z,0
2017-06-30T00:28:48.729Z,0
2017-06-30T00:29:48.807Z,0
2017-06-30T00:30:48.814Z,0
2017-06-30T00:31:48.852Z,0
2017-06-30T00:32:49.198Z,0
2017-06-30T00:33:48.925Z,0
2017-06-30T00:34:49.007Z,0
2017-06-30T00:35:49.007Z,0
2017-06-30T00:36:49.047Z,0
2017-06-30T00:37:49.389Z,0
2017-06-30T00:38:49.118Z,0
2017-06-30T00:39:49.464Z,0
2017-06-30T00:40:49.506Z,0
2017-06-30T00:41:49.849Z,0
2017-06-30T00:42:49.277Z,0
2017-06-30T00:43:49.930Z,0
2017-06-30T00:44:49.666Z,0
2017-06-30T00:45:49.698Z,0
2017-06-30T00:46:49.746Z,0
2017-06-30T00:47:50.087Z,0
2017-06-30T00:48:49.508Z,0
2017-06-30T00:49:49.859Z,0
2017-06-30T00:50:49.585Z,0
2017-06-30T00:51:49.932Z,0
2017-06-30T00:52:49.985Z,0
2017-06-30T00:53:49.708Z,0
2017-06-30T00:54:50.050Z,0
2017-06-30T00:55:49.780Z,0
2017-06-30T00:56:49.819Z,0
2017-06-30T00:57:49.852Z,0
2017-06-30T00:58:50.506Z,0
2017-06-30T00:59:49.932Z,0
2017-06-30T01:00:50.282Z,0
2017-06-30T01:01:50.010Z,0
2017-06-30T01:02:50.050Z,0
2017-06-30T01:03:50.096Z,0
2017-06-30T01:04:50.432Z,0
2017-06-30T01:05:50.483Z,0
2017-06-30T01:06:50.821Z,0
2017-06-30T01:07:50.553Z,0
2017-06-30T01:08:50.283Z,0
2017-06-30T01:09:50.642Z,0
2017-06-30T01:10:50.668Z,0
2017-06-30T01:11:50.709Z,0
2017-06-30T01:12:50.752Z,0
2017-06-30T01:13:50.784Z,0
2017-06-30T01:14:50.519Z,0
2017-06-30T01:15:50.549Z,0
2017-06-30T01:16:50.902Z,0
2017-06-30T01:17:50.630Z,0
2017-06-30T01:18:50.674Z,0
2017-06-30T01:19:51.016Z,0
2017-06-30T01:20:50.748Z,0
2017-06-30T01:21:51.093Z,0
2017-06-30T01:22:50.832Z,0
2017-06-30T01:23:51.315Z,0
2017-06-30T01:24:51.210Z,0
2017-06-30T01:25:51.249Z,0
2017-06-30T01:26:50.974Z,0
2017-06-30T01:27:51.319Z,0
2017-06-30T01:28:51.359Z,0
2017-06-30T01:29:51.092Z,0
2017-06-30T01:30:51.134Z,0
2017-06-30T01:31:51.176Z,0
2017-06-30T01:32:51.516Z,0
2017-06-30T01:33:51.252Z,0
2017-06-30T01:34:51.291Z,0
2017-06-30T01:35:51.634Z,0
2017-06-30T01:36:51.364Z,0
2017-06-30T01:37:51.713Z,0
2017-06-30T01:38:51.748Z,0
2017-06-30T01:39:51.783Z,0
2017-06-30T01:40:51.523Z,0
2017-06-30T01:41:51.559Z,0
2017-06-30T01:42:52.208Z,0
2017-06-30T01:43:51.638Z,0
2017-06-30T01:44:51.999Z,0
2017-06-30T01:45:51.708Z,0
2017-06-30T01:46:51.765Z,0
2017-06-30T01:47:52.095Z,0
2017-06-30T01:48:52.441Z,0
2017-06-30T01:49:52.488Z,0
2017-06-30T01:50:51.903Z,0
2017-06-30T01:51:52.250Z,0
2017-06-30T01:52:51.980Z,0
2017-06-30T01:53:52.019Z,0
2017-06-30T01:54:52.978Z,0
2017-06-30T01:55:52.416Z,0
2017-06-30T01:56:52.755Z,0
2017-06-30T01:57:53.095Z,0
2017-06-30T01:58:52.522Z,0
2017-06-30T01:59:52.249Z,0
2017-06-30T02:00:52.296Z,0
2017-06-30T02:01:52.639Z,0
2017-06-30T02:02:52.375Z,0
2017-06-30T02:03:53.029Z,0
2017-06-30T02:04:52.444Z,0
2017-06-30T02:05:52.486Z,0
2017-06-30T02:06:53.136Z,0
2017-06-30T02:07:52.561Z,0
2017-06-30T02:08:52.597Z,0
2017-06-30T02:09:52.943Z,0
2017-06-30T02:10:52.689Z,0
2017-06-30T02:11:52.717Z,0
2017-06-30T02:12:52.750Z,0
2017-06-30T02:13:53.103Z,0
2017-06-30T02:14:53.139Z,0
2017-06-30T02:15:52.872Z,0
2017-06-30T02:16:52.917Z,0
2017-06-30T02:17:52.948Z,4
2017-06-30T02:18:52.992Z,4
2017-06-30T02:19:53.023Z,0
2017-06-30T02:20:53.066Z,0
2017-06-30T02:21:53.713Z,4
2017-06-30T02:22:53.135Z,4
2017-06-30T02:23:53.493Z,4
2017-06-30T02:24:53.219Z,4
2017-06-30T02:25:53.260Z,8
2017-06-30T02:26:53.293Z,8
2017-06-30T02:27:53.638Z,12
2017-06-30T02:28:53.680Z,12
2017-06-30T02:29:53.426Z,8
2017-06-30T02:30:53.756Z,12
2017-06-30T02:31:53.794Z,12
2017-06-30T02:32:53.530Z,12
2017-06-30T02:33:53.872Z,12
2017-06-30T02:34:53.602Z,12
2017-06-30T02:35:53.645Z,12
2017-06-30T02:36:54.296Z,16
2017-06-30T02:37:53.734Z,16
2017-06-30T02:38:54.063Z,20
2017-06-30T02:39:54.409Z,20
2017-06-30T02:40:54.146Z,24
2017-06-30T02:41:54.188Z,20
2017-06-30T02:42:54.220Z,24
2017-06-30T02:43:54.261Z,24
2017-06-30T02:44:53.989Z,24
2017-06-30T02:45:54.340Z,28
2017-06-30T02:46:54.386Z,32
2017-06-30T02:47:54.110Z,32
2017-06-30T02:48:54.144Z,28
2017-06-30T02:49:54.493Z,32
2017-06-30T02:50:54.533Z,32
2017-06-30T02:51:54.885Z,28
2017-06-30T02:52:54.606Z,36
2017-06-30T02:53:54.339Z,36
2017-06-30T02:54:54.992Z,40
2017-06-30T02:55:55.031Z,44
2017-06-30T02:56:54.453Z,52
2017-06-30T02:57:54.802Z,60
2017-06-30T02:58:55.142Z,68
2017-06-30T02:59:54.879Z,72
2017-06-30T03:00:54.916Z,76
2017-06-30T03:01:54.647Z,68
2017-06-30T03:02:55.031Z,72
2017-06-30T03:03:54.726Z,72
2017-06-30T03:04:54.763Z,80
2017-06-30T03:05:55.111Z,88
2017-06-30T03:06:55.154Z,108
2017-06-30T03:07:55.496Z,132
2017-06-30T03:08:54.918Z,160
2017-06-30T03:09:55.266Z,172
2017-06-30T03:10:55.305Z,176
2017-06-30T03:11:55.347Z,188
2017-06-30T03:12:55.405Z,216
2017-06-30T03:13:55.420Z,260
2017-06-30T03:14:55.456Z,300
2017-06-30T03:15:55.190Z,332
2017-06-30T03:16:56.150Z,360
2017-06-30T03:17:55.572Z,368
2017-06-30T03:18:55.301Z,368
2017-06-30T03:19:55.958Z,372
2017-06-30T03:20:55.380Z,392
2017-06-30T03:21:55.735Z,428
2017-06-30T03:22:55.465Z,488
2017-06-30T03:23:55.499Z,532
2017-06-30T03:24:55.842Z,560
2017-06-30T03:25:55.579Z,580
2017-06-30T03:26:55.616Z,604
2017-06-30T03:27:55.657Z,628
2017-06-30T03:28:55.693Z,660
2017-06-30T03:29:55.745Z,696
2017-06-30T03:30:56.078Z,748
2017-06-30T03:31:55.813Z,784
2017-06-30T03:32:56.158Z,808
2017-06-30T03:33:56.506Z,860
2017-06-30T03:34:55.925Z,880
2017-06-30T03:35:55.964Z,920
2017-06-30T03:36:56.008Z,988
2017-06-30T03:37:56.351Z,1040
2017-06-30T03:38:56.082Z,1076
2017-06-30T03:39:56.125Z,1088
2017-06-30T03:40:56.160Z,1072
2017-06-30T03:41:56.209Z,1064
2017-06-30T03:42:56.547Z,1028
2017-06-30T03:43:56.583Z,1048
2017-06-30T03:44:56.628Z,1088
2017-06-30T03:45:56.972Z,1136
2017-06-30T03:46:57.007Z,1160
2017-06-30T03:47:56.738Z,1156
2017-06-30T03:48:56.469Z,1200
2017-06-30T03:49:56.821Z,1332
2017-06-30T03:50:56.546Z,1460
2017-06-30T03:51:56.591Z,1420
2017-06-30T03:52:56.935Z,1324
2017-06-30T03:53:56.978Z,1200
2017-06-30T03:54:56.729Z,1140
2017-06-30T03:55:56.745Z,1064
2017-06-30T03:56:56.785Z,1020
2017-06-30T03:57:57.435Z,1052
2017-06-30T03:58:57.474Z,1092
2017-06-30T03:59:57.205Z,1140
2017-06-30T04:00:56.938Z,1140
2017-06-30T04:01:57.589Z,1184
2017-06-30T04:02:57.019Z,1208
2017-06-30T04:03:57.050Z,1260
2017-06-30T04:04:57.714Z,1256
2017-06-30T04:05:57.133Z,1028
2017-06-30T04:06:57.478Z,836
2017-06-30T04:07:57.209Z,752
2017-06-30T04:08:57.861Z,748
2017-06-30T04:09:57.592Z,696
2017-06-30T04:10:57.634Z,576
2017-06-30T04:11:57.368Z,500
2017-06-30T04:12:57.407Z,524
2017-06-30T04:13:57.491Z,564
2017-06-30T04:14:57.787Z,572
2017-06-30T04:15:57.523Z,556
2017-06-30T04:16:58.183Z,516
2017-06-30T04:17:57.597Z,492
2017-06-30T04:18:57.638Z,536
2017-06-30T04:19:57.982Z,600
2017-06-30T04:20:57.716Z,596
2017-06-30T04:21:58.367Z,604
2017-06-30T04:22:57.797Z,616
2017-06-30T04:23:57.832Z,608
2017-06-30T04:24:57.871Z,620
2017-06-30T04:25:58.214Z,632
2017-06-30T04:26:57.947Z,676
2017-06-30T04:27:57.989Z,720
2017-06-30T04:28:58.331Z,784
2017-06-30T04:29:58.073Z,856
2017-06-30T04:30:58.415Z,928
2017-06-30T04:31:58.148Z,984
2017-06-30T04:32:58.489Z,972
2017-06-30T04:33:58.535Z,884
2017-06-30T04:34:58.568Z,784
2017-06-30T04:35:58.606Z,752
2017-06-30T04:36:58.643Z,676
2017-06-30T04:37:58.688Z,612
2017-06-30T04:38:58.736Z,580
2017-06-30T04:39:58.454Z,580
2017-06-30T04:40:58.537Z,596
2017-06-30T04:41:58.841Z,616
2017-06-30T04:42:58.877Z,640
2017-06-30T04:43:58.619Z,676
2017-06-30T04:44:58.646Z,780
2017-06-30T04:45:58.691Z,944
2017-06-30T04:46:58.725Z,1172
2017-06-30T04:47:58.772Z,1396
2017-06-30T04:48:59.416Z,1564
2017-06-30T04:49:58.845Z,1704
2017-06-30T04:50:58.886Z,1784
2017-06-30T04:51:59.227Z,1892
2017-06-30T04:52:58.957Z,2148
2017-06-30T04:53:58.997Z,2568
2017-06-30T04:54:59.034Z,2876
2017-06-30T04:55:59.383Z,2952
2017-06-30T04:56:59.115Z,2956
2017-06-30T04:57:59.153Z,2944
2017-06-30T04:58:59.190Z,3148
2017-06-30T04:59:59.239Z,3252
2017-06-30T05:00:59.277Z,3088
2017-06-30T05:01:59.315Z,2904
2017-06-30T05:02:59.661Z,2824
2017-06-30T05:03:59.390Z,2792
2017-06-30T05:04:59.738Z,2748
2017-06-30T05:05:59.486Z,2472
2017-06-30T05:06:59.505Z,2024
2017-06-30T05:07:59.593Z,1732
2017-06-30T05:08:59.583Z,1608
2017-06-30T05:09:59.622Z,1636
2017-06-30T05:10:59.663Z,1656
2017-06-30T05:11:59.701Z,1548
2017-06-30T05:13:00.057Z,1476
2017-06-30T05:14:00.094Z,1412
2017-06-30T05:14:59.818Z,1444
2017-06-30T05:15:59.856Z,1480
2017-06-30T05:16:59.896Z,1356
2017-06-30T05:17:59.935Z,1308
2017-06-30T05:18:59.976Z,1352
2017-06-30T05:20:00.019Z,1448
2017-06-30T05:21:00.052Z,1596
2017-06-30T05:22:00.708Z,1628
2017-06-30T05:23:00.137Z,1740
2017-06-30T05:24:00.478Z,1976
2017-06-30T05:25:00.207Z,2180
2017-06-30T05:26:00.252Z,2456
2017-06-30T05:27:00.289Z,2656
2017-06-30T05:28:00.329Z,2668
2017-06-30T05:29:00.676Z,2724
2017-06-30T05:30:00.713Z,3072
2017-06-30T05:31:00.442Z,3544
2017-06-30T05:32:00.481Z,3668
2017-06-30T05:33:00.522Z,3436
2017-06-30T05:34:00.559Z,3032
2017-06-30T05:35:00.908Z,3232
2017-06-30T05:36:00.946Z,3464
2017-06-30T05:37:00.989Z,3416
2017-06-30T05:38:01.331Z,3212
2017-06-30T05:39:00.754Z,3492
2017-06-30T05:40:00.796Z,4044
2017-06-30T05:41:00.837Z,4604
2017-06-30T05:42:01.182Z,4912
2017-06-30T05:43:00.913Z,4896
2017-06-30T05:44:00.958Z,5024
2017-06-30T05:45:00.995Z,5272
2017-06-30T05:46:01.034Z,5684
2017-06-30T05:47:01.072Z,6088
2017-06-30T05:48:01.106Z,6624
2017-06-30T05:49:01.150Z,7272
2017-06-30T05:50:01.531Z,7852
2017-06-30T05:51:01.267Z,8272
2017-06-30T05:52:01.270Z,8640
2017-06-30T05:53:01.308Z,9040
2017-06-30T05:54:01.350Z,9272
2017-06-30T05:55:01.388Z,9028
2017-06-30T05:56:01.734Z,8572
2017-06-30T05:57:01.774Z,7988
2017-06-30T05:58:01.505Z,7868
2017-06-30T05:59:01.544Z,8132
2017-06-30T06:00:01.585Z,7528
2017-06-30T06:01:01.627Z,6932
2017-06-30T06:02:01.981Z,6560
2017-06-30T06:03:01.702Z,6280
2017-06-30T06:04:02.055Z,5968
2017-06-30T06:05:01.787Z,5436
2017-06-30T06:06:02.064Z,5528
2017-06-30T06:07:02.172Z,5704
2017-06-30T06:08:01.907Z,5444
2017-06-30T06:09:02.177Z,5152
2017-06-30T06:10:02.012Z,5204
2017-06-30T06:11:02.333Z,5244
2017-06-30T06:12:02.061Z,5164
2017-06-30T06:13:02.104Z,4840
2017-06-30T06:14:02.451Z,4392
2017-06-30T06:15:02.295Z,4208
2017-06-30T06:16:02.532Z,4160
2017-06-30T06:17:02.269Z,4532
2017-06-30T06:18:02.610Z,4988
2017-06-30T06:19:02.341Z,5336
2017-06-30T06:20:02.693Z,5940
2017-06-30T06:21:02.425Z,6256
2017-06-30T06:22:03.078Z,6220
2017-06-30T06:23:02.813Z,6156
2017-06-30T06:24:02.540Z,6480
2017-06-30T06:25:02.887Z,7316
2017-06-30T06:26:03.233Z,8556
2017-06-30T06:27:02.967Z,9152
2017-06-30T06:28:03.007Z,9800
2017-06-30T06:29:03.066Z,10448
2017-06-30T06:30:02.788Z,10424
2017-06-30T06:31:02.828Z,9944
2017-06-30T06:32:03.172Z,9120
2017-06-30T06:33:03.206Z,8852
2017-06-30T06:34:03.248Z,9628
2017-06-30T06:35:03.607Z,9676
2017-06-30T06:36:03.332Z,9500
2017-06-30T06:37:03.061Z,9488
2017-06-30T06:38:03.413Z,9684
2017-06-30T06:39:03.445Z,9856
2017-06-30T06:40:03.928Z,9844
2017-06-30T06:41:03.533Z,9808
2017-06-30T06:42:03.262Z,10264
2017-06-30T06:43:03.616Z,10828
2017-06-30T06:44:03.385Z,11916
2017-06-30T06:45:03.390Z,12880
2017-06-30T06:46:03.428Z,13896
2017-06-30T06:47:03.464Z,15308
2017-06-30T06:48:03.558Z,16896
2017-06-30T06:49:03.555Z,19488
2017-06-30T06:50:04.207Z,20992
2017-06-30T06:51:03.940Z,21536
2017-06-30T06:52:03.675Z,22368
2017-06-30T06:53:03.709Z,20960
2017-06-30T06:54:04.056Z,19584
2017-06-30T06:55:04.107Z,19552
2017-06-30T06:56:04.454Z,19648
2017-06-30T06:57:03.913Z,22304
2017-06-30T06:58:04.223Z,17216
2017-06-30T06:59:04.266Z,14568
2017-06-30T07:00:04.320Z,11888
2017-06-30T07:01:04.451Z,10388
2017-06-30T07:02:04.394Z,9276
2017-06-30T07:03:04.437Z,8284
2017-06-30T07:04:04.170Z,7532
2017-06-30T07:05:04.824Z,7556
2017-06-30T07:06:04.563Z,7852
2017-06-30T07:07:04.911Z,8112
2017-06-30T07:08:04.640Z,8256
2017-06-30T07:09:04.687Z,8968
2017-06-30T07:10:04.423Z,10936
2017-06-30T07:11:04.770Z,14048
2017-06-30T07:12:04.809Z,18400
2017-06-30T07:13:04.543Z,25568
2017-06-30T07:14:04.585Z,41824
2017-06-30T07:15:04.934Z,26368
2017-06-30T07:16:05.043Z,32000
2017-06-30T07:17:05.318Z,44608
2017-06-30T07:18:04.748Z,24960
2017-06-30T07:19:04.792Z,31616
2017-06-30T07:20:05.141Z,69856
2017-06-30T07:21:08.488Z,59520
2017-06-30T07:22:05.236Z,51680
2017-06-30T07:23:05.276Z,37664
2017-06-30T07:24:05.007Z,39712
2017-06-30T07:25:05.048Z,36064
2017-06-30T07:26:05.144Z,15460
2017-06-30T07:27:08.304Z,14024
2017-06-30T07:28:05.494Z,14184
2017-06-30T07:29:05.542Z,15084
2017-06-30T07:30:09.104Z,18144
2017-06-30T07:31:05.315Z,21696
2017-06-30T07:32:05.364Z,31776
2017-06-30T07:33:05.404Z,17152
2017-06-30T07:34:05.806Z,17248
2017-06-30T07:35:06.113Z,17920
2017-06-30T07:36:05.535Z,18208
2017-06-30T07:37:05.581Z,17952
2017-06-30T07:38:05.621Z,19904
2017-06-30T07:39:05.665Z,20192
2017-06-30T07:40:05.706Z,29024
2017-06-30T07:41:06.059Z,23136
2017-06-30T07:42:05.796Z,20576
2017-06-30T07:43:05.837Z,25184
2017-06-30T07:44:06.189Z,34496
2017-06-30T07:45:05.926Z,64032
2017-06-30T07:46:06.276Z,41568
2017-06-30T07:47:06.547Z,56064
2017-06-30T07:48:06.668Z,38976
2017-06-30T07:49:06.099Z,50752
2017-06-30T07:50:06.474Z,29824
2017-06-30T07:51:06.188Z,27968
2017-06-30T07:52:06.239Z,24896
2017-06-30T07:53:06.324Z,26048
2017-06-30T07:54:06.946Z,57152
2017-06-30T07:55:06.827Z,30560
2017-06-30T07:56:06.738Z,36896
2017-06-30T07:57:07.085Z,31040
2017-06-30T07:58:06.507Z,67008
2017-06-30T07:59:06.775Z,69216
2017-06-30T08:00:06.619Z,63872
2017-06-30T08:01:06.678Z,70112
2017-06-30T08:02:06.707Z,66912
2017-06-30T08:03:07.476Z,31776
2017-06-30T08:04:07.093Z,36160
2017-06-30T08:05:07.441Z,27200
2017-06-30T08:06:07.199Z,19584
2017-06-30T08:07:06.915Z,17856
2017-06-30T08:08:06.965Z,16992
2017-06-30T08:09:07.322Z,16304
2017-06-30T08:10:07.058Z,17216
2017-06-30T08:11:07.103Z,16364
2017-06-30T08:12:07.149Z,25504
2017-06-30T08:13:07.200Z,23520
2017-06-30T08:14:07.241Z,24032
2017-06-30T08:15:07.288Z,15860
2017-06-30T08:16:07.685Z,14400
2017-06-30T08:17:07.687Z,14080
2017-06-30T08:18:07.730Z,18528
2017-06-30T08:19:08.643Z,18496
2017-06-30T08:20:07.516Z,17760
2017-06-30T08:21:07.855Z,29440
2017-06-30T08:22:07.593Z,19168
2017-06-30T08:23:07.944Z,24352
2017-06-30T08:24:07.987Z,26720
2017-06-30T08:25:08.026Z,32032
2017-06-30T08:26:08.853Z,25792
2017-06-30T08:27:07.805Z,23584
2017-06-30T08:28:07.866Z,26336
2017-06-30T08:29:07.904Z,24320
2017-06-30T08:30:07.936Z,25472
2017-06-30T08:31:08.605Z,23264
2017-06-30T08:32:08.032Z,22208
2017-06-30T08:33:08.694Z,23584
2017-06-30T08:34:08.421Z,21088
2017-06-30T08:35:08.160Z,18112
2017-06-30T08:36:08.204Z,18432
2017-06-30T08:37:08.559Z,20544
2017-06-30T08:38:08.291Z,32896
2017-06-30T08:39:08.368Z,28992
2017-06-30T08:40:08.383Z,42368
2017-06-30T08:41:08.420Z,47680
2017-06-30T08:42:08.771Z,22336
2017-06-30T08:43:08.522Z,33312
2017-06-30T08:44:08.550Z,37440
2017-06-30T08:45:08.593Z,36224
2017-06-30T08:46:09.261Z,38848
2017-06-30T08:47:08.686Z,24320
2017-06-30T08:48:08.731Z,22944
2017-06-30T08:49:08.774Z,17760
2017-06-30T08:50:08.823Z,14440
2017-06-30T08:51:08.860Z,13352
2017-06-30T08:52:08.906Z,12948
2017-06-30T08:53:09.260Z,12976
2017-06-30T08:54:08.992Z,15124
2017-06-30T08:55:09.352Z,16280
2017-06-30T08:56:09.092Z,16488
2017-06-30T08:57:09.124Z,21248
2017-06-30T08:58:09.165Z,23936
2017-06-30T08:59:09.213Z,34208
2017-06-30T09:00:09.872Z,28896
2017-06-30T09:01:09.619Z,35680
2017-06-30T09:02:09.345Z,31680
2017-06-30T09:03:09.400Z,46368
2017-06-30T09:04:09.433Z,77600
2017-06-30T09:05:10.150Z,72832
2017-06-30T09:06:10.206Z,53184
2017-06-30T09:07:10.612Z,41056
2017-06-30T09:08:10.229Z,42176
2017-06-30T09:09:09.968Z,37472
2017-06-30T09:10:10.320Z,46272
2017-06-30T09:11:10.052Z,39936
2017-06-30T09:12:10.098Z,37824
2017-06-30T09:13:10.141Z,40192
2017-06-30T09:14:10.185Z,23776
2017-06-30T09:15:09.947Z,24768
2017-06-30T09:16:09.973Z,20960
2017-06-30T09:17:10.090Z,20736
2017-06-30T09:18:10.680Z,23264
2017-06-30T09:19:10.106Z,37280
2017-06-30T09:20:10.152Z,82016
2017-06-30T09:21:10.513Z,87328
2017-06-30T09:22:11.175Z,90752
2017-06-30T09:23:10.290Z,92000
2017-06-30T09:24:10.336Z,86368
2017-06-30T09:25:10.701Z,87040
2017-06-30T09:26:10.737Z,88256
2017-06-30T09:27:10.475Z,94400
2017-06-30T09:28:10.528Z,94176
2017-06-30T09:29:10.895Z,98688
2017-06-30T09:30:10.617Z,102432
2017-06-30T09:31:10.673Z,97792
2017-06-30T09:32:11.030Z,93088
2017-06-30T09:33:11.071Z,89376
2017-06-30T09:34:10.820Z,90848
2017-06-30T09:35:10.868Z,89216
2017-06-30T09:36:10.915Z,94528
2017-06-30T09:37:10.967Z,92256
2017-06-30T09:38:11.015Z,89792
2017-06-30T09:39:11.066Z,91232
2017-06-30T09:40:11.425Z,95680
2017-06-30T09:41:11.173Z,39808
2017-06-30T09:42:11.218Z,14752
2017-06-30T09:43:11.274Z,8448
2017-06-30T09:44:11.385Z,6300
2017-06-30T09:45:11.375Z,5940
2017-06-30T09:46:11.737Z,5088
2017-06-30T09:47:11.775Z,3784
2017-06-30T09:48:11.835Z,2816
2017-06-30T09:49:11.569Z,2520
2017-06-30T09:50:11.925Z,3444
2017-06-30T09:51:11.973Z,5540
2017-06-30T09:52:12.021Z,8648
2017-06-30T09:53:11.756Z,13812
2017-06-30T09:54:11.802Z,17344
2017-06-30T09:55:11.851Z,50496
2017-06-30T09:56:11.894Z,89440
2017-06-30T09:57:12.247Z,59904
2017-06-30T09:58:12.294Z,99360
2017-06-30T09:59:12.036Z,103232
2017-06-30T10:00:12.131Z,78336
2017-06-30T10:01:12.128Z,91008
2017-06-30T10:02:12.488Z,100064
2017-06-30T10:03:12.229Z,99296
2017-06-30T10:04:12.581Z,95552
2017-06-30T10:05:12.316Z,30336
2017-06-30T10:06:12.368Z,97600
2017-06-30T10:07:12.723Z,104896
2017-06-30T10:08:12.770Z,31424
2017-06-30T10:09:13.135Z,24704
2017-06-30T10:10:12.877Z,14952
2017-06-30T10:11:12.614Z,15432
2017-06-30T10:12:12.665Z,41216
2017-06-30T10:13:13.329Z,62688
2017-06-30T10:14:13.077Z,105888
2017-06-30T10:15:13.118Z,106848
2017-06-30T10:16:13.161Z,70048
2017-06-30T10:17:13.223Z,86784
2017-06-30T10:18:12.957Z,28544
2017-06-30T10:19:13.388Z,82496
2017-06-30T10:20:13.418Z,77632
2017-06-30T10:21:13.414Z,58528
2017-06-30T10:22:13.462Z,80384
2017-06-30T10:23:13.199Z,15584
2017-06-30T10:24:14.183Z,75904
2017-06-30T10:25:13.613Z,24064
2017-06-30T10:26:13.663Z,34688
2017-06-30T10:27:13.407Z,29536
2017-06-30T10:28:13.446Z,22976
2017-06-30T10:29:13.722Z,17760
2017-06-30T10:30:13.860Z,81600
2017-06-30T10:31:13.600Z,20288
2017-06-30T10:32:13.642Z,60640
2017-06-30T10:33:13.692Z,113024
2017-06-30T10:34:13.746Z,108960
2017-06-30T10:35:14.101Z,40256
2017-06-30T10:36:14.458Z,15224
2017-06-30T10:37:13.886Z,20384
2017-06-30T10:38:13.939Z,103456
2017-06-30T10:39:14.290Z,18752
2017-06-30T10:40:14.029Z,14192
2017-06-30T10:41:14.387Z,11132
2017-06-30T10:42:14.131Z,10052
2017-06-30T10:43:14.180Z,80256
2017-06-30T10:44:14.224Z,32832
2017-06-30T10:45:14.717Z,20736
2017-06-30T10:46:14.320Z,15764
2017-06-30T10:47:14.674Z,13608
2017-06-30T10:48:14.415Z,13928
2017-06-30T10:49:14.771Z,23008
2017-06-30T10:50:14.822Z,71296
2017-06-30T10:51:14.868Z,25376
2017-06-30T10:52:15.217Z,19008
2017-06-30T10:53:14.964Z,96640
2017-06-30T10:54:14.701Z,85024
2017-06-30T10:55:15.057Z,84640
2017-06-30T10:56:14.790Z,90528
2017-06-30T10:57:15.147Z,89824
2017-06-30T10:58:14.885Z,92768
2017-06-30T10:59:14.973Z,16980
2017-06-30T11:00:15.291Z,34816
2017-06-30T11:01:15.029Z,65568
2017-06-30T11:02:15.076Z,57024
2017-06-30T11:03:15.127Z,49856
2017-06-30T11:04:15.177Z,25312
2017-06-30T11:05:15.533Z,19008
2017-06-30T11:06:15.583Z,16640
2017-06-30T11:07:15.316Z,14780
2017-06-30T11:08:16.285Z,12324
2017-06-30T11:09:15.753Z,9524
2017-06-30T11:10:15.474Z,9392
2017-06-30T11:11:16.118Z,14596
2017-06-30T11:12:15.550Z,17888
2017-06-30T11:13:15.592Z,17216
2017-06-30T11:14:16.253Z,18112
2017-06-30T11:15:16.012Z,16928
2017-06-30T11:16:15.732Z,17248
2017-06-30T11:17:15.777Z,14784
2017-06-30T11:18:16.133Z,14264
2017-06-30T11:19:15.869Z,16736
2017-06-30T11:20:15.917Z,15052
2017-06-30T11:21:15.963Z,17504
2017-06-30T11:22:16.314Z,13712
2017-06-30T11:23:16.052Z,12024
2017-06-30T11:24:16.413Z,10324
2017-06-30T11:25:16.147Z,10264
2017-06-30T11:26:16.495Z,13504
2017-06-30T11:27:16.534Z,14380
2017-06-30T11:28:16.271Z,11388
2017-06-30T11:29:17.305Z,9440
2017-06-30T11:30:16.363Z,7956
2017-06-30T11:31:16.718Z,7672
2017-06-30T11:32:16.455Z,9756
2017-06-30T11:33:16.807Z,8392
2017-06-30T11:34:16.541Z,7916
2017-06-30T11:35:16.955Z,7404
2017-06-30T11:36:16.943Z,7228
2017-06-30T11:37:16.980Z,7000
2017-06-30T11:38:17.023Z,7216
2017-06-30T11:39:16.758Z,7060
2017-06-30T11:40:17.111Z,7188
2017-06-30T11:41:16.855Z,7212
2017-06-30T11:42:16.893Z,8140
2017-06-30T11:43:16.936Z,9516
2017-06-30T11:44:17.287Z,10900
2017-06-30T11:45:17.339Z,11324
2017-06-30T11:46:17.067Z,12588
2017-06-30T11:47:17.415Z,15028
2017-06-30T11:48:17.153Z,13960
2017-06-30T11:49:17.513Z,11848
2017-06-30T11:50:17.250Z,9960
2017-06-30T11:51:17.278Z,8324
2017-06-30T11:52:17.326Z,7488
2017-06-30T11:53:17.366Z,6960
2017-06-30T11:54:17.409Z,6744
2017-06-30T11:55:17.673Z,6600
2017-06-30T11:56:18.111Z,6428
2017-06-30T11:57:17.538Z,7356
2017-06-30T11:58:18.202Z,8384
2017-06-30T11:59:18.241Z,7736
2017-06-30T12:00:17.673Z,7164
2017-06-30T12:01:18.021Z,7608
2017-06-30T12:02:18.370Z,7668
2017-06-30T12:03:18.110Z,6280
2017-06-30T12:04:17.844Z,4968
2017-06-30T12:05:17.886Z,5336
2017-06-30T12:06:17.924Z,9224
2017-06-30T12:07:17.971Z,9828
2017-06-30T12:08:18.323Z,9444
2017-06-30T12:09:18.368Z,8252
2017-06-30T12:10:18.108Z,7176
2017-06-30T12:11:18.143Z,6148
2017-06-30T12:12:18.493Z,6524
2017-06-30T12:13:18.230Z,7980
2017-06-30T12:14:18.897Z,6664
2017-06-30T12:15:18.632Z,5908
2017-06-30T12:16:18.357Z,5880
2017-06-30T12:17:18.396Z,6600
2017-06-30T12:18:18.749Z,7068
2017-06-30T12:19:18.487Z,6768
2017-06-30T12:20:18.833Z,6760
2017-06-30T12:21:18.576Z,7364
2017-06-30T12:22:19.227Z,7520
2017-06-30T12:23:18.657Z,7736
2017-06-30T12:24:19.007Z,7604
2017-06-30T12:25:19.048Z,6824
2017-06-30T12:26:18.782Z,5192
2017-06-30T12:27:18.828Z,3812
2017-06-30T12:28:19.177Z,3628
2017-06-30T12:29:19.219Z,4504
2017-06-30T12:30:19.572Z,6748
2017-06-30T12:31:19.307Z,8932
2017-06-30T12:32:19.344Z,11412
2017-06-30T12:33:19.084Z,13136
2017-06-30T12:34:19.173Z,14320
2017-06-30T12:35:19.169Z,13768
2017-06-30T12:36:19.523Z,12452
2017-06-30T12:37:19.563Z,10448
2017-06-30T12:38:19.923Z,8568
2017-06-30T12:39:19.654Z,7188
2017-06-30T12:40:19.390Z,6652
2017-06-30T12:41:19.434Z,7328
2017-06-30T12:42:19.471Z,9092
2017-06-30T12:43:19.515Z,8704
2017-06-30T12:44:19.577Z,7420
2017-06-30T12:45:19.597Z,6652
2017-06-30T12:46:19.642Z,5996
2017-06-30T12:47:19.993Z,6216
2017-06-30T12:48:20.043Z,7888
2017-06-30T12:49:20.093Z,9732
2017-06-30T12:50:19.813Z,11336
2017-06-30T12:51:19.855Z,12052
2017-06-30T12:52:20.207Z,11716
2017-06-30T12:53:20.250Z,11736
2017-06-30T12:54:20.300Z,12044
2017-06-30T12:55:20.030Z,12136
2017-06-30T12:56:20.685Z,11980
2017-06-30T12:57:20.768Z,12548
2017-06-30T12:58:20.791Z,13908
2017-06-30T12:59:20.515Z,15056
2017-06-30T13:00:20.246Z,14684
2017-06-30T13:01:20.597Z,12792
2017-06-30T13:02:20.335Z,11616
2017-06-30T13:03:20.729Z,11044
2017-06-30T13:04:21.353Z,9216
2017-06-30T13:05:20.465Z,8296
2017-06-30T13:06:20.509Z,7828
2017-06-30T13:07:20.857Z,8180
2017-06-30T13:08:20.901Z,8332
2017-06-30T13:09:20.636Z,7724
2017-06-30T13:10:20.679Z,7012
2017-06-30T13:11:20.723Z,6340
2017-06-30T13:12:21.078Z,5520
2017-06-30T13:13:21.113Z,4872
2017-06-30T13:14:21.155Z,4456
2017-06-30T13:15:20.941Z,4292
2017-06-30T13:16:22.888Z,4016
2017-06-30T13:17:20.983Z,3856
2017-06-30T13:18:21.327Z,4080
2017-06-30T13:19:21.070Z,5560
2017-06-30T13:20:21.106Z,5292
2017-06-30T13:21:21.459Z,5316
2017-06-30T13:22:21.504Z,4768
2017-06-30T13:23:21.241Z,4332
2017-06-30T13:24:21.588Z,4372
2017-06-30T13:25:22.334Z,4116
2017-06-30T13:26:21.366Z,3820
2017-06-30T13:27:21.711Z,3940
2017-06-30T13:28:21.448Z,4220
2017-06-30T13:29:21.491Z,4492